Time;durP1;ratioP1;P1;durP2;ratioP2;P2;SDS_P1;SDS_P2;PMS_P1;PMS_P2;Temp;Humidity;BMP_temperature;BMP_pressure;BME280_temperature;BME280_humidity;BME280_pressure;Samples;Min_cycle;Max_cycle;Signal;HPM_P1;HPM_P2
2022/07/06 00:01:47;;;;;;;2.30;1.73;;;19.80;62.30;;;19.13;48.95;97888.88;5029912;28;20981;-78
2022/07/06 00:04:13;;;;;;;7.57;2.08;;;19.80;62.50;;;19.08;48.75;97891.66;5030002;28;20442;-76
2022/07/06 00:06:39;;;;;;;3.30;1.90;;;19.80;62.20;;;19.07;49.04;97890.06;5029744;28;20410;-78
2022/07/06 00:09:06;;;;;;;4.38;2.00;;;19.70;62.50;;;19.07;49.09;97887.38;5029251;28;20885;-76
2022/07/06 00:11:34;;;;;;;3.35;2.05;;;19.80;63.30;;;19.04;49.04;97894.13;5029701;28;20461;-76
2022/07/06 00:14:00;;;;;;;7.13;1.90;;;19.70;62.70;;;18.96;49.18;97881.38;5029859;28;20773;-77
2022/07/06 00:16:26;;;;;;;3.50;1.95;;;19.70;62.80;;;18.92;48.89;97889.22;5011947;28;20541;-77
2022/07/06 00:18:52;;;;;;;3.72;1.92;;;19.60;62.90;;;18.94;49.28;97881.66;5028767;28;20445;-77
2022/07/06 00:21:18;;;;;;;5.03;1.90;;;19.60;62.90;;;18.91;49.58;97876.91;5029242;28;20426;-77
2022/07/06 00:23:44;;;;;;;4.47;1.90;;;19.60;63.20;;;18.89;49.59;97875.59;5029801;28;20403;-77
2022/07/06 00:26:10;;;;;;;4.28;2.13;;;19.60;63.40;;;18.87;49.47;97873.19;5029689;28;20457;-77
2022/07/06 00:28:37;;;;;;;3.60;2.00;;;19.60;63.20;;;18.85;49.32;97880.75;5028969;28;20910;-77
2022/07/06 00:31:05;;;;;;;5.65;2.00;;;19.60;63.20;;;18.85;49.10;97875.38;5029624;28;20407;-77
2022/07/06 00:33:31;;;;;;;3.63;1.85;;;19.60;62.90;;;18.84;48.42;97876.47;5029740;28;20487;-76
2022/07/06 00:35:57;;;;;;;4.20;2.03;;;19.50;62.30;;;18.84;48.97;97873.00;5029456;28;20403;-76
2022/07/06 00:38:23;;;;;;;4.40;1.95;;;19.50;62.50;;;18.81;49.19;97886.97;5011277;28;20412;-76
2022/07/06 00:40:49;;;;;;;4.53;1.90;;;19.50;62.90;;;18.83;48.68;97882.13;5029324;28;20407;-76
2022/07/06 00:43:15;;;;;;;3.03;1.92;;;19.50;62.40;;;18.80;48.75;97886.19;5029601;28;20517;-76
2022/07/06 00:45:43;;;;;;;2.80;1.75;;;19.50;62.70;;;18.76;49.18;97887.84;5029467;28;20411;-76
2022/07/06 00:48:09;;;;;;;4.22;1.85;;;19.50;62.80;;;18.79;48.66;97879.25;5029000;28;20761;-76
2022/07/06 00:50:36;;;;;;;7.00;2.60;;;19.50;62.40;;;18.80;48.71;97888.06;5029430;28;20617;-76
2022/07/06 00:53:05;;;;;;;4.85;2.00;;;19.50;62.40;;;18.75;48.85;97880.91;5029393;28;20415;-76
2022/07/06 00:55:34;;;;;;;4.93;2.00;;;19.50;62.70;;;18.73;48.78;97875.03;5029537;28;20982;-76
2022/07/06 00:58:02;;;;;;;3.97;1.85;;;19.50;62.50;;;18.73;48.38;97875.03;5029336;28;21218;-76
2022/07/06 01:00:29;;;;;;;2.95;1.90;;;19.40;62.20;;;18.69;48.81;97879.38;5029087;28;20399;-76
2022/07/06 01:02:57;;;;;;;3.28;1.90;;;19.40;62.50;;;18.70;48.72;97880.19;5029422;28;20451;-76
2022/07/06 01:05:23;;;;;;;2.42;1.70;;;19.30;62.40;;;18.67;48.87;97878.06;5029515;28;20403;-76
2022/07/06 01:07:52;;;;;;;5.10;2.10;;;19.40;62.70;;;18.66;48.16;97881.84;5029450;28;20405;-76
2022/07/06 01:10:20;;;;;;;3.63;2.03;;;19.30;61.90;;;18.63;47.52;97869.03;5028364;28;20399;-76
2022/07/06 01:12:48;;;;;;;4.63;1.92;;;19.30;62.10;;;18.60;48.46;97881.13;5029297;28;20497;-76
2022/07/06 01:15:16;;;;;;;3.60;1.80;;;19.30;62.40;;;18.58;48.49;97872.56;5029681;28;20406;-75
2022/07/06 01:17:43;;;;;;;3.80;2.15;;;19.20;62.50;;;18.55;48.32;97876.59;5029266;28;20917;-76
2022/07/06 01:20:12;;;;;;;4.73;2.03;;;19.20;62.30;;;18.52;48.88;97873.69;5028458;28;20466;-77
2022/07/06 01:22:39;;;;;;;5.45;1.83;;;19.20;62.60;;;18.49;48.71;97883.09;5029227;28;20439;-76
2022/07/06 01:25:06;;;;;;;3.65;2.10;;;19.20;62.30;;;18.50;48.79;97879.34;5029387;28;20410;-76
2022/07/06 01:27:34;;;;;;;8.27;1.85;;;19.20;62.20;;;18.49;48.42;97875.06;5029171;28;20877;-77
2022/07/06 01:30:00;;;;;;;5.60;2.20;;;19.20;62.10;;;18.43;48.58;97873.53;5028449;28;20448;-76
2022/07/06 01:32:26;;;;;;;2.92;1.80;;;19.20;62.20;;;18.39;48.53;97872.53;5031150;28;20750;-76
2022/07/06 01:34:52;;;;;;;6.80;2.08;;;19.10;62.30;;;18.36;48.73;97872.31;5032325;28;20402;-76
2022/07/06 01:37:19;;;;;;;3.43;1.70;;;19.10;62.50;;;18.33;48.49;97876.38;5032434;28;20425;-77
2022/07/06 01:39:45;;;;;;;5.07;1.83;;;19.00;62.30;;;18.27;47.73;97866.78;5031847;28;20395;-77
2022/07/06 01:42:11;;;;;;;4.35;1.95;;;19.00;61.90;;;18.26;48.16;97873.28;5032271;28;20410;-76
2022/07/06 01:44:37;;;;;;;3.75;1.70;;;18.90;61.90;;;18.17;48.93;97865.06;5032248;28;20772;-76
2022/07/06 01:47:03;;;;;;;6.80;2.10;;;18.90;62.60;;;18.12;49.03;97867.78;5032603;28;20485;-77
2022/07/06 01:49:29;;;;;;;7.70;2.20;;;18.80;62.90;;;18.13;49.02;97869.41;5031757;28;20873;-77
2022/07/06 01:51:55;;;;;;;5.80;2.10;;;18.80;62.80;;;18.09;49.50;97868.38;5031975;28;20549;-76
2022/07/06 01:54:22;;;;;;;5.53;2.15;;;18.80;63.00;;;18.07;48.52;97861.72;5032169;28;20406;-76
2022/07/06 01:56:48;;;;;;;4.60;2.10;;;18.70;62.50;;;17.99;49.05;97871.19;5032122;28;20420;-76
2022/07/06 01:59:14;;;;;;;4.90;2.13;;;18.70;62.80;;;17.94;49.33;97878.50;5031468;28;20494;-76
2022/07/06 02:01:40;;;;;;;4.43;2.20;;;18.60;63.20;;;17.92;49.38;97880.66;5031783;28;20872;-72
2022/07/06 02:04:06;;;;;;;3.90;2.20;;;18.60;63.30;;;17.86;49.19;97879.91;5032003;28;20411;-76
2022/07/06 02:06:32;;;;;;;3.30;1.80;;;18.60;63.30;;;17.84;49.80;97883.97;5031962;28;20770;-76
2022/07/06 02:08:58;;;;;;;3.57;1.90;;;18.50;63.50;;;17.80;50.05;97878.38;5031334;28;20410;-76
2022/07/06 02:11:25;;;;;;;5.20;2.20;;;18.50;63.80;;;17.76;49.96;97883.50;5031888;28;20399;-76
2022/07/06 02:13:51;;;;;;;6.03;1.88;;;18.50;63.90;;;17.71;50.64;97880.09;5032018;28;20410;-78
2022/07/06 02:16:17;;;;;;;4.03;2.05;;;18.40;64.60;;;17.65;50.57;97882.03;5031927;28;20896;-76
2022/07/06 02:18:43;;;;;;;4.47;1.85;;;18.40;64.60;;;17.66;50.60;97886.31;5031258;28;20434;-76
2022/07/06 02:21:09;;;;;;;7.27;2.37;;;18.40;64.60;;;17.61;50.72;97878.31;5031685;28;20421;-76
2022/07/06 02:23:35;;;;;;;3.40;2.10;;;18.40;65.00;;;17.59;51.36;97871.63;5031682;28;20418;-76
2022/07/06 02:26:01;;;;;;;3.13;1.90;;;18.30;65.40;;;17.56;51.26;97869.50;5031778;28;20407;-76
2022/07/06 02:28:28;;;;;;;3.33;2.22;;;18.30;65.40;;;17.52;51.07;97873.81;5031070;28;20407;-76
2022/07/06 02:30:54;;;;;;;6.13;2.25;;;18.30;65.40;;;17.50;51.85;97876.81;5031627;28;20435;-76
2022/07/06 02:33:20;;;;;;;5.10;2.30;;;18.20;65.90;;;17.47;51.87;97884.59;5031747;28;20541;-76
2022/07/06 02:35:46;;;;;;;5.65;2.25;;;18.20;66.10;;;17.40;52.48;97877.69;5031507;28;20885;-76
2022/07/06 02:38:12;;;;;;;6.18;2.20;;;18.20;66.50;;;17.34;52.36;97883.38;5030896;28;20441;-76
2022/07/06 02:40:38;;;;;;;5.72;2.20;;;18.10;66.80;;;17.36;52.47;97884.72;5031284;28;20421;-76
2022/07/06 02:43:04;;;;;;;3.67;2.20;;;18.10;66.90;;;17.33;52.50;97885.25;5031158;28;20407;-76
2022/07/06 02:45:32;;;;;;;6.35;2.75;;;18.10;67.20;;;17.30;52.82;97891.16;5031220;28;20415;-76
2022/07/06 02:47:58;;;;;;;4.82;2.40;;;18.00;67.30;;;17.27;52.54;97889.06;5031176;28;20453;-76
2022/07/06 02:50:25;;;;;;;4.07;2.20;;;18.00;67.00;;;17.26;52.92;97887.47;5030353;28;20407;-76
2022/07/06 02:52:51;;;;;;;6.88;2.30;;;18.00;67.40;;;17.24;53.30;97886.94;5031429;28;20833;-76
2022/07/06 02:55:17;;;;;;;3.78;2.20;;;18.00;67.80;;;17.19;53.57;97892.34;5031219;28;20490;-76
2022/07/06 02:57:43;;;;;;;7.63;2.50;;;17.90;68.00;;;17.15;53.35;97896.66;5031285;28;20978;-77
2022/07/06 03:00:11;;;;;;;6.70;2.10;;;17.90;67.80;;;17.11;53.65;97900.19;5030212;28;20498;-77
2022/07/06 03:02:38;;;;;;;4.00;2.20;;;17.90;68.20;;;17.07;53.45;97902.59;5031005;28;20834;-77
2022/07/06 03:05:06;;;;;;;5.50;2.22;;;17.80;68.40;;;17.11;53.42;97897.50;5031050;28;20529;-76
2022/07/06 03:07:32;;;;;;;3.92;2.10;;;17.80;68.20;;;17.07;54.13;97902.59;5031002;28;20464;-76
2022/07/06 03:09:57;;;;;;;3.80;2.40;;;17.80;68.80;;;17.06;54.07;97902.91;5030160;28;20407;-76
2022/07/06 03:12:23;;;;;;;4.28;2.22;;;17.80;69.10;;;17.00;54.10;97902.91;5030662;28;20403;-77
2022/07/06 03:14:49;;;;;;;4.35;2.70;;;17.70;68.90;;;16.94;53.98;97901.38;5030848;28;20402;-76
2022/07/06 03:17:15;;;;;;;4.47;2.47;;;17.70;68.90;;;16.93;54.48;97905.13;5030657;28;20423;-76
2022/07/06 03:19:42;;;;;;;6.20;2.80;;;17.60;69.20;;;16.91;54.37;97904.63;5030190;28;20410;-76
2022/07/06 03:22:08;;;;;;;3.80;2.50;;;17.60;69.30;;;16.83;54.30;97904.41;5030611;28;20414;-76
2022/07/06 03:24:34;;;;;;;4.10;2.17;;;17.60;69.40;;;16.82;54.49;97908.16;5030697;28;20415;-76
2022/07/06 03:27:00;;;;;;;4.45;2.40;;;17.60;69.40;;;16.78;55.18;97910.56;5030494;28;20399;-77
2022/07/06 03:29:26;;;;;;;5.88;2.40;;;17.50;70.10;;;16.75;55.07;97910.34;5042834;22;20588;-75
2022/07/06 03:31:52;;;;;;;4.90;2.17;;;17.50;70.20;;;16.68;55.28;97899.16;5030319;28;20407;-74
2022/07/06 03:34:18;;;;;;;8.37;2.43;;;17.50;70.20;;;16.75;55.12;97907.66;5030247;28;20758;-74
2022/07/06 03:36:45;;;;;;;3.67;2.20;;;17.50;70.30;;;16.71;54.86;97915.44;5030254;28;20457;-74
2022/07/06 03:39:11;;;;;;;6.05;2.40;;;17.50;70.00;;;16.72;55.67;97910.88;5029671;28;20414;-74
2022/07/06 03:41:37;;;;;;;4.68;2.25;;;17.40;70.60;;;16.67;55.69;97914.41;5030098;28;20399;-75
2022/07/06 03:44:03;;;;;;;4.63;2.10;;;17.40;71.10;;;16.60;56.27;97912.03;5030350;28;20456;-73
2022/07/06 03:46:38;;;;;;;6.13;2.53;;;17.40;71.40;;;16.59;56.51;97913.09;5027920;28;20408;-76
2022/07/06 03:49:04;;;;;;;3.95;2.40;;;17.40;71.90;;;16.63;55.74;97914.16;5038742;28;20439;-76
2022/07/06 03:51:30;;;;;;;3.40;2.20;;;17.40;71.60;;;16.62;55.68;97915.22;5046379;28;20444;-74
2022/07/06 03:53:57;;;;;;;4.63;2.47;;;17.40;71.10;;;16.60;55.92;97908.53;5018736;28;20408;-76
2022/07/06 03:56:28;;;;;;;5.40;2.42;;;17.40;71.40;;;16.59;56.10;97906.94;5017497;28;20442;-76
2022/07/06 03:58:55;;;;;;;4.97;2.70;;;17.40;71.60;;;16.59;55.55;97910.41;5009830;28;20487;-76
2022/07/06 04:01:21;;;;;;;5.20;2.53;;;17.30;71.20;;;16.64;55.87;97921.09;5010273;28;20484;-76
2022/07/06 04:03:47;;;;;;;6.03;2.50;;;17.30;71.60;;;16.59;55.92;97915.75;5017501;28;20403;-76
2022/07/06 04:06:13;;;;;;;6.50;2.20;;;17.40;71.50;;;16.57;56.81;97927.78;5010243;28;20944;-76
2022/07/06 04:08:39;;;;;;;4.82;2.40;;;17.30;72.20;;;16.53;56.78;97927.56;5009553;28;20409;-76
2022/07/06 04:11:07;;;;;;;6.80;2.80;;;17.30;72.50;;;16.61;56.77;97926.97;5008705;28;20439;-76
2022/07/06 04:13:33;;;;;;;6.28;2.75;;;17.30;72.50;;;16.58;56.77;97924.84;5010224;28;20554;-75
2022/07/06 04:15:59;;;;;;;5.05;2.63;;;17.30;72.60;;;16.56;56.92;97932.34;5012524;28;20403;-74
2022/07/06 04:18:25;;;;;;;4.90;2.45;;;17.30;72.80;;;16.58;56.92;97924.03;5018546;28;20781;-75
2022/07/06 04:20:51;;;;;;;5.57;2.50;;;17.30;72.70;;;16.59;57.43;97937.13;5023218;28;20482;-75
2022/07/06 04:23:18;;;;;;;6.97;2.83;;;17.30;73.30;;;16.58;57.15;97937.41;5024093;28;20403;-76
2022/07/06 04:25:44;;;;;;;3.83;2.73;;;17.30;73.10;;;16.59;57.78;97933.66;5024050;28;20402;-76
2022/07/06 04:28:11;;;;;;;5.65;2.80;;;17.30;73.40;;;16.61;57.37;97936.91;5036450;28;20831;-77
2022/07/06 04:30:37;;;;;;;4.07;2.58;;;17.30;73.50;;;16.60;57.89;97941.44;5037419;28;20407;-77
2022/07/06 04:33:03;;;;;;;5.47;3.33;;;17.40;74.10;;;16.62;58.00;97947.28;5047966;28;20415;-76
2022/07/06 04:35:29;;;;;;;6.33;2.50;;;17.40;74.10;;;16.62;58.78;97944.63;5049606;28;20484;-78
2022/07/06 04:37:55;;;;;;;8.45;2.83;;;17.40;74.60;;;16.64;58.44;97950.50;5049630;28;20500;-76
2022/07/06 04:40:21;;;;;;;5.13;2.83;;;17.40;74.80;;;16.64;58.08;97958.50;5048599;28;20468;-78
2022/07/06 04:42:48;;;;;;;5.57;2.63;;;17.40;74.60;;;16.66;58.19;97954.78;5049470;28;20397;-76
2022/07/06 04:45:15;;;;;;;7.30;2.40;;;17.40;74.40;;;16.63;58.32;97964.13;5049206;28;20484;-76
2022/07/06 04:47:42;;;;;;;5.60;2.83;;;17.40;74.90;;;16.69;58.44;97962.25;5049166;28;20404;-76
2022/07/06 04:50:08;;;;;;;7.28;3.05;;;17.40;75.00;;;16.70;58.49;97959.28;5048487;28;20725;-76
2022/07/06 04:52:35;;;;;;;7.33;3.00;;;17.40;75.20;;;16.74;59.00;97960.34;5049280;28;20398;-76
2022/07/06 04:55:01;;;;;;;8.05;2.85;;;17.50;75.70;;;16.78;59.12;97965.91;5049192;28;20435;-76
2022/07/06 04:57:29;;;;;;;6.40;2.92;;;17.50;76.10;;;16.84;58.88;97962.94;5049237;28;20417;-76
2022/07/06 04:59:56;;;;;;;3.60;2.67;;;17.60;75.90;;;16.85;59.33;97961.06;5040902;28;20423;-76
2022/07/06 05:02:23;;;;;;;4.97;2.83;;;17.60;76.20;;;16.92;59.55;97959.69;5034046;28;20417;-76
2022/07/06 05:04:49;;;;;;;9.73;3.50;;;17.60;76.60;;;16.97;58.58;97964.22;5024884;28;20405;-76
2022/07/06 05:07:15;;;;;;;4.57;2.80;;;17.70;75.70;;;16.97;58.32;97962.34;5020205;28;20408;-76
2022/07/06 05:09:41;;;;;;;3.85;2.50;;;17.70;75.30;;;17.01;58.87;97974.06;5022429;28;20794;-76
2022/07/06 05:12:09;;;;;;;7.78;3.13;;;17.80;76.10;;;17.11;59.25;97967.06;5022761;28;20401;-76
2022/07/06 05:14:36;;;;;;;6.88;3.30;;;17.80;76.40;;;17.18;58.83;97970.22;5021718;28;20404;-76
2022/07/06 05:17:02;;;;;;;6.07;2.95;;;17.90;76.20;;;17.19;58.80;97977.16;5023201;28;20932;-76
2022/07/06 05:19:29;;;;;;;5.10;3.00;;;17.90;75.90;;;17.20;58.31;97973.41;5022510;28;20412;-75
2022/07/06 05:21:55;;;;;;;9.10;3.80;;;17.90;75.30;;;17.23;58.00;97980.88;5024096;28;20416;-76
2022/07/06 05:24:21;;;;;;;6.07;3.15;;;17.90;75.20;;;17.23;58.54;97972.84;5023132;28;20410;-75
2022/07/06 05:26:47;;;;;;;8.00;3.20;;;17.90;75.60;;;17.21;58.67;97972.34;5022786;28;20814;-76
2022/07/06 05:29:13;;;;;;;5.72;3.20;;;17.90;76.20;;;17.27;59.11;97971.22;5021005;28;20410;-75
2022/07/06 05:31:39;;;;;;;6.53;3.10;;;18.00;76.60;;;17.30;59.54;97974.13;5021299;28;20425;-76
2022/07/06 05:34:12;;;;;;;8.27;3.30;;;18.00;77.10;;;17.35;58.70;97974.09;5026002;28;20411;-76
2022/07/06 05:36:40;;;;;;;6.90;3.00;;;18.10;76.40;;;17.42;59.12;97981.81;5028354;28;20498;-75
2022/07/06 05:39:09;;;;;;;7.40;3.08;;;18.10;76.70;;;17.49;58.57;97978.78;5022736;28;20491;-75
2022/07/06 05:41:37;;;;;;;7.30;3.20;;;18.20;76.20;;;17.54;58.16;97984.91;5018753;28;20406;-77
2022/07/06 05:44:04;;;;;;;7.72;3.05;;;18.20;75.70;;;17.58;58.67;97979.78;5022959;28;20411;-76
2022/07/06 05:46:30;;;;;;;7.13;3.17;;;18.30;76.20;;;17.55;58.18;97978.47;5014935;28;20408;-76
2022/07/06 05:51:41;;;;;;;5.97;3.13;;;18.30;75.80;;;17.61;58.76;97984.56;5012084;28;20531;-76
2022/07/06 05:54:07;;;;;;;8.47;3.07;;;18.30;76.30;;;17.64;58.86;97981.38;5012256;28;20412;-76
2022/07/06 05:56:33;;;;;;;4.95;2.78;;;18.30;77.20;;;17.66;59.20;97976.53;5012128;28;20474;-75
2022/07/06 05:58:59;;;;;;;5.30;2.92;;;18.40;76.80;;;17.68;58.64;97979.72;5011841;28;20463;-76
2022/07/06 06:01:25;;;;;;;3.80;2.55;;;18.40;76.30;;;17.68;58.47;97979.72;5012301;28;20405;-76
2022/07/06 06:03:51;;;;;;;6.72;2.83;;;18.40;76.20;;;17.69;59.39;97989.34;5018775;28;20429;-76
2022/07/06 06:06:17;;;;;;;3.70;2.53;;;18.40;77.20;;;17.73;59.35;97985.03;5013128;28;20459;-76
2022/07/06 06:08:45;;;;;;;4.20;2.50;;;18.40;77.50;;;17.75;59.34;97983.66;5011585;28;20549;-76
2022/07/06 06:11:10;;;;;;;4.72;2.80;;;18.40;77.20;;;17.78;58.73;97985.78;5012086;28;20401;-76
2022/07/06 06:13:36;;;;;;;4.25;2.35;;;18.40;76.70;;;17.78;59.07;97987.66;5012392;28;20443;-75
2022/07/06 06:16:03;;;;;;;10.02;3.42;;;18.40;77.00;;;17.82;58.12;97991.34;5015013;28;20505;-76
2022/07/06 06:18:29;;;;;;;5.90;2.70;;;18.50;76.60;;;17.81;58.35;97989.78;5019141;28;20422;-75
2022/07/06 06:20:54;;;;;;;10.23;3.17;;;18.50;76.30;;;17.91;56.41;97988.88;5019298;28;20442;-77
2022/07/06 06:23:20;;;;;;;5.03;2.80;;;18.60;73.90;;;17.87;57.61;97996.69;5031737;28;20399;-75
2022/07/06 06:25:48;;;;;;;5.10;2.72;;;18.60;75.40;;;17.93;57.85;97994.75;5031770;28;20897;-76
2022/07/06 06:28:13;;;;;;;5.43;2.60;;;18.50;75.60;;;17.96;58.03;97996.88;5031182;28;20776;-76
2022/07/06 06:30:41;;;;;;;5.47;2.92;;;18.60;76.10;;;18.10;58.38;98005.84;5024118;28;20421;-79
2022/07/06 06:33:09;;;;;;;5.80;2.53;;;18.70;76.60;;;18.23;58.67;98009.72;5027705;28;20504;-80
2022/07/06 06:35:36;;;;;;;6.22;2.60;;;18.80;76.80;;;18.37;57.47;98005.25;5022517;28;20417;-80
2022/07/06 06:38:05;;;;;;;5.07;2.63;;;19.00;75.70;;;18.48;57.36;98004.88;5022856;28;20944;-78
2022/07/06 06:40:32;;;;;;;5.15;2.40;;;19.10;75.70;;;18.62;57.07;98007.66;5017290;28;20403;-80
2022/07/06 06:42:59;;;;;;;6.68;2.42;;;19.20;75.20;;;18.79;56.15;98012.56;5015437;28;20927;-77
2022/07/06 06:45:25;;;;;;;5.30;2.30;;;19.40;74.20;;;18.84;56.67;98009.78;5018524;28;20414;-76
2022/07/06 06:47:51;;;;;;;5.60;2.35;;;19.50;74.40;;;18.89;56.58;98013.19;5032805;28;20411;-85
2022/07/06 06:50:17;;;;;;;6.20;2.40;;;19.50;74.30;;;18.95;55.97;98006.66;5033082;28;20493;-85
2022/07/06 06:52:43;;;;;;;8.55;2.58;;;19.60;73.70;;;19.01;56.03;98003.94;5034094;28;20418;-82
2022/07/06 06:55:09;;;;;;;6.15;2.33;;;19.60;73.70;;;19.02;55.92;98006.31;5034053;28;20407;-77
2022/07/06 06:57:35;;;;;;;4.95;2.22;;;19.60;73.40;;;19.02;55.16;98011.66;5016414;28;20416;-76
2022/07/06 07:00:04;;;;;;;3.13;2.13;;;19.70;73.30;;;19.00;55.50;98000.44;5010332;28;20415;-77
2022/07/06 07:02:30;;;;;;;4.60;2.22;;;19.60;72.90;;;18.92;54.04;97999.22;5009923;28;20752;-80
2022/07/06 07:04:56;;;;;;;5.30;2.22;;;19.60;71.20;;;18.87;54.91;97998.47;5011061;28;20441;-75
2022/07/06 07:07:22;;;;;;;4.60;2.10;;;19.50;72.10;;;18.85;55.24;98004.16;5010902;28;20409;-76
2022/07/06 07:09:48;;;;;;;3.33;2.03;;;19.50;72.50;;;18.81;55.50;98003.13;5009067;28;20423;-77
2022/07/06 07:12:14;;;;;;;3.30;1.85;;;19.40;72.70;;;18.75;55.70;97998.91;5014636;28;20435;-77
2022/07/06 07:14:41;;;;;;;5.25;2.20;;;19.40;72.70;;;18.73;55.71;98011.00;5021984;28;20418;-79
2022/07/06 07:17:08;;;;;;;4.65;2.10;;;19.40;73.10;;;18.69;55.99;98004.63;5011303;28;20419;-79
2022/07/06 07:19:34;;;;;;;10.15;2.58;;;19.30;73.30;;;18.65;54.43;98006.28;5010245;28;20405;-80
2022/07/06 07:22:00;;;;;;;8.27;2.42;;;19.30;72.30;;;18.63;53.30;98003.09;5010865;28;20423;-81
2022/07/06 07:24:26;;;;;;;5.18;2.40;;;19.30;70.30;;;18.66;52.05;98000.63;5010666;28;20504;-80
2022/07/06 07:26:52;;;;;;;6.15;2.47;;;19.30;68.50;;;18.60;53.76;97998.31;5010611;28;20405;-78
2022/07/06 07:29:17;;;;;;;5.80;2.00;;;19.30;70.70;;;18.57;54.41;97997.00;5015514;28;20412;-76
2022/07/06 07:31:43;;;;;;;6.85;2.08;;;19.20;71.30;;;18.58;54.76;98003.94;5018373;28;20452;-77
2022/07/06 07:34:11;;;;;;;3.72;2.20;;;19.20;71.70;;;18.64;54.52;98002.81;5011332;28;20511;-78
2022/07/06 07:36:37;;;;;;;4.43;2.10;;;19.30;71.80;;;18.65;54.99;97993.66;5010413;28;20846;-79
2022/07/06 07:39:03;;;;;;;4.10;2.30;;;19.30;71.90;;;18.69;56.09;97997.38;5010052;28;20413;-75
2022/07/06 07:41:30;;;;;;;5.45;2.90;;;19.30;72.90;;;18.73;53.13;97990.34;5010103;28;20413;-76
2022/07/06 07:43:56;;;;;;;5.55;2.22;;;19.40;70.00;;;18.68;53.70;97995.78;5010490;28;20420;-75
2022/07/06 07:46:22;;;;;;;5.00;2.20;;;19.40;70.60;;;18.71;54.71;97994.41;5010253;28;20545;-78
2022/07/06 07:48:48;;;;;;;6.82;2.75;;;19.30;71.50;;;18.72;54.73;97996.78;5011528;28;20427;-78
2022/07/06 07:51:16;;;;;;;3.63;2.05;;;19.40;71.80;;;18.73;54.75;97981.50;5035583;28;20478;-79
2022/07/06 07:53:42;;;;;;;6.13;2.70;;;19.40;71.70;;;18.71;53.55;97995.22;5041617;28;20792;-78
2022/07/06 07:56:08;;;;;;;8.20;2.47;;;19.40;70.40;;;18.78;54.19;97992.19;5036157;28;20414;-79
2022/07/06 07:58:34;;;;;;;10.25;2.63;;;19.40;71.10;;;18.85;53.06;97996.09;5034509;28;20744;-78
2022/07/06 08:01:00;;;;;;;5.07;2.13;;;19.50;70.20;;;18.83;54.30;97989.41;5041096;28;20405;-77
2022/07/06 08:03:26;;;;;;;5.30;2.08;;;19.50;70.90;;;18.89;55.32;97993.63;5029862;28;20498;-77
2022/07/06 08:05:52;;;;;;;4.63;2.45;;;19.50;72.10;;;18.95;55.01;97995.13;5030068;28;20617;-82
2022/07/06 08:08:20;;;;;;;4.05;2.15;;;19.60;72.10;;;19.00;54.66;97987.03;5027893;28;20773;-80
2022/07/06 08:10:46;;;;;;;5.85;2.30;;;19.60;71.60;;;19.09;55.01;98001.41;5010267;28;20416;-77
2022/07/06 08:13:12;;;;;;;2.90;2.20;;;19.70;72.10;;;19.15;54.95;98000.22;5010240;28;20401;-81
2022/07/06 08:15:38;;;;;;;5.95;2.10;;;19.70;72.10;;;19.21;55.04;97998.25;5010893;28;20937;-80
2022/07/06 08:18:04;;;;;;;8.90;2.50;;;19.80;72.10;;;19.39;52.59;97986.72;5009858;28;20922;-80
2022/07/06 08:20:30;;;;;;;6.10;2.30;;;19.90;69.90;;;19.39;53.44;97986.72;5010040;28;20408;-81
2022/07/06 08:22:56;;;;;;;3.57;2.43;;;20.00;70.20;;;19.45;53.23;98003.53;5011062;28;20404;-82
2022/07/06 08:25:23;;;;;;;4.03;2.38;;;20.00;70.00;;;19.51;52.76;97999.69;5010904;28;20411;-80
2022/07/06 08:27:49;;;;;;;6.45;2.70;;;20.10;69.60;;;19.48;52.50;97998.38;5015353;28;20395;-81
2022/07/06 08:30:15;;;;;;;6.10;2.40;;;20.10;69.30;;;19.55;52.52;98000.69;5028830;28;20414;-80
2022/07/06 08:32:42;;;;;;;6.20;2.10;;;20.20;69.00;;;19.60;52.81;98000.63;5032337;28;20407;-80
2022/07/06 08:35:09;;;;;;;5.75;2.30;;;20.20;69.40;;;19.69;53.88;97998.88;5031032;28;20490;-77
2022/07/06 08:37:35;;;;;;;6.57;2.65;;;20.30;70.40;;;19.87;52.14;97998.00;5030143;28;20419;-78
2022/07/06 08:40:02;;;;;;;5.53;2.83;;;20.40;69.30;;;19.98;52.26;98009.38;5031619;28;20772;-80
2022/07/06 08:42:32;;;;;;;5.07;2.08;;;20.60;68.90;;;20.02;52.43;97996.94;5033367;28;20946;-79
2022/07/06 08:45:01;;;;;;;5.82;2.40;;;20.60;68.90;;;20.13;52.36;97992.97;5035411;28;20864;-78
2022/07/06 08:47:28;;;;;;;2.70;1.90;;;20.70;69.10;;;20.17;52.22;97993.94;5034871;28;20750;-79
2022/07/06 08:49:54;;;;;;;8.35;2.60;;;20.70;68.80;;;20.29;53.47;97996.97;5032995;28;20423;-82
2022/07/06 08:52:20;;;;;;;9.48;2.30;;;20.80;70.00;;;20.37;51.20;97996.28;5033232;28;20490;-79
2022/07/06 08:54:46;;;;;;;5.72;2.08;;;20.90;67.50;;;20.42;51.17;98004.25;5033755;28;20430;-77
2022/07/06 08:57:13;;;;;;;4.13;2.85;;;21.00;67.30;;;20.47;50.78;97998.75;5032039;28;20430;-81
2022/07/06 08:59:41;;;;;;;7.25;2.80;;;21.00;66.90;;;20.57;49.28;98000.47;5040946;28;20407;-80
2022/07/06 09:02:09;;;;;;;5.38;2.00;;;21.10;65.00;;;20.53;50.35;97998.66;5052482;28;20472;-79
2022/07/06 09:04:36;;;;;;;9.57;2.43;;;21.10;65.90;;;20.61;51.59;98006.81;5053041;28;20488;-79
2022/07/06 09:07:03;;;;;;;5.65;2.10;;;21.20;67.60;;;20.78;51.65;98000.81;5053054;28;20903;-79
2022/07/06 09:09:33;;;;;;;4.88;2.25;;;21.20;68.00;;;20.80;51.23;98002.13;5054594;28;20414;-80
2022/07/06 09:11:59;;;;;;;6.72;2.22;;;21.30;67.30;;;20.83;50.17;98006.09;5034837;28;20406;-80
2022/07/06 09:14:25;;;;;;;6.03;2.30;;;21.40;66.30;;;20.96;49.31;98016.03;5052876;28;20424;-80
2022/07/06 09:17:03;;;;;;;8.38;3.15;;;21.50;65.30;;;20.92;48.04;98009.66;5052739;28;20427;-80
2022/07/06 09:19:30;;;;;;;4.10;2.25;;;21.50;63.10;;;20.91;48.35;98005.38;5052376;28;20397;-78
2022/07/06 09:21:56;;;;;;;4.13;2.05;;;21.50;64.50;;;21.03;50.05;98007.56;5046922;28;20419;-79
2022/07/06 09:24:22;;;;;;;4.53;1.80;;;21.50;65.80;;;21.16;50.68;98006.72;5028262;28;20426;-79
2022/07/06 09:26:48;;;;;;;4.25;2.03;;;21.70;66.60;;;21.31;50.70;98009.09;5040037;28;20428;-79
2022/07/06 09:29:14;;;;;;;4.07;2.20;;;21.80;66.60;;;21.53;50.77;98000.22;5045179;23;21032;-75
2022/07/06 09:31:40;;;;;;;3.53;1.88;;;22.00;67.00;;;21.62;50.13;98012.63;5032293;28;20407;-74
2022/07/06 09:34:11;;;;;;;5.88;2.60;;;22.10;66.10;;;21.55;47.35;98017.66;5032203;28;20403;-75
2022/07/06 09:36:43;;;;;;;5.65;2.40;;;22.20;63.60;;;21.72;47.89;98021.59;5015082;28;20396;-75
2022/07/06 09:39:22;;;;;;;3.67;2.17;;;22.20;63.60;;;21.81;48.90;98015.13;5008324;28;20415;-75
2022/07/06 09:41:50;;;;;;;5.18;2.10;;;22.30;64.40;;;21.93;49.02;98017.25;5008631;28;20458;-75
2022/07/06 09:44:24;;;;;;;5.72;2.38;;;22.40;64.70;;;22.03;45.92;98018.94;5023640;28;20430;-75
2022/07/06 09:46:51;;;;;;;4.57;1.80;;;22.50;60.80;;;22.11;47.03;98018.16;5008462;28;20429;-76
2022/07/06 09:49:19;;;;;;;3.22;1.75;;;22.60;62.10;;;22.13;46.87;98024.84;5022365;28;20410;-76
2022/07/06 09:51:46;;;;;;;5.22;1.88;;;22.60;62.00;;;22.12;47.37;98028.63;5012875;28;20462;-75
2022/07/06 09:54:13;;;;;;;9.20;2.30;;;22.60;62.40;;;22.07;45.17;98020.69;5003785;28;20434;-75
2022/07/06 09:56:41;;;;;;;7.50;2.30;;;22.70;60.10;;;22.11;46.08;98032.44;5022813;28;20484;-75
2022/07/06 09:59:12;;;;;;;4.75;2.90;;;22.70;60.00;;;22.23;45.09;98032.66;5022687;28;20407;-76
2022/07/06 10:01:39;;;;;;;5.82;2.50;;;22.70;60.00;;;22.10;45.55;98027.38;5031908;28;20411;-75
2022/07/06 10:04:06;;;;;;;5.05;2.10;;;22.70;60.20;;;22.03;46.55;98030.50;5031932;28;20430;-75
2022/07/06 10:06:34;;;;;;;4.90;2.20;;;22.60;61.10;;;22.11;46.95;98037.84;5032013;28;20406;-75
2022/07/06 10:09:01;;;;;;;5.53;2.70;;;22.60;61.10;;;22.29;45.79;98038.72;5021252;28;20414;-74
2022/07/06 10:11:29;;;;;;;7.50;2.60;;;22.80;60.60;;;22.39;45.01;98041.94;5023312;28;21000;-74
2022/07/06 10:13:57;;;;;;;5.27;2.00;;;22.90;60.10;;;22.51;45.82;98035.94;5031724;28;20419;-76
2022/07/06 10:16:24;;;;;;;6.37;2.63;;;23.00;60.40;;;22.62;45.65;98037.25;5031543;28;20400;-76
2022/07/06 10:18:54;;;;;;;6.77;2.20;;;23.10;60.20;;;22.64;45.60;98037.72;5020151;28;20432;-76
2022/07/06 10:21:22;;;;;;;2.20;1.70;;;23.10;60.20;;;22.70;46.63;98036.47;5005760;28;20422;-76